Aeroporto :
LOGIN :

Iscrizione | Disclaimer

   EN    FR    IT 

 










Sommario :    VFR   VFR Marginale   IFR   IFR Intensivo   IFR Molto Intensivo
Visibilità : 
Base nubi : 
>= 8 km
>= 3000ft
5 / 8 km
1000 / 3000 ft
1500m / 5 km
500 / 1000 ft
800 / 1500m
200 / 500 ft
< 800m
< 200 ft
Simboli :   Temporali  Nebbia  Neve Forte  Precipitazioni Forti  Vento > 20 kt
SIGMETs :   Varie  Temporali  Ghiacco  Turbolenza  Onda orograficha  Ceneri Vulcaniche






- Altitudine del aeroporto : 170 ft
- Codice IATA : KRP


EKKA - Karup

ULTIMO METAR :
  • 290650Z AUTO 29006KT 240V330 9999 NCD 12/07 Q1031 NOSIG

METARs OBSOLETI :
  • 290620Z AUTO 28005KT 9999 FEW012/// 11/07 Q1031 NOSIG
  • 290550Z AUTO 27004KT 240V300 9999 NCD 10/07 Q1031 NOSIG
  • 290520Z AUTO 26004KT 9999 NCD 09/07 Q1032 NOSIG
  • 290450Z AUTO 27003KT 9999 NCD 07/06 Q1032 NOSIG
  • 290420Z AUTO 23002KT 9999 FEW012/// 06/05 Q1031

TAF TAF EKKA
Valido dal 29 a 06 ore il 30 a 06 ore UTC


290505Z 2906/3006 VRB05KT 9999 FEW040



MetMap, La meteo Aeronautica in un colpo d'occhio ! - Copyright ORBIFLY Dicembre 2007 - Disclaimer

ORBIFLY MET'MAP TEAM :

Programmazione e sviluppo : Alexandra Zaïnal
Concezione : Baudouin d'Aumeries
Aiuto per la programmazione : Marc-Olivier Méhu
Supporto tecnico e logistico : Manuel Goepfert
Aiuto per la traduzione : Arnaldo La Scala

Contatto : metmap@orbifly.com




FONTI E CREDITI :

   NOAA